^^
Albertville, AL Historical Data
 
Daily Summary for November 17, 2019 Units:  English    Metric   Both
Daily Weekly Monthly Yearly Custom
  Current: High: Low: Average:
Temperature: 46.4 °F 46.4 °F 33.6 °F 35.2 °F
Dew Point: 38.6 °F 38.6 °F 30.3 °F 31.9 °F
Humidity: 74% 91% 74% 88%
Wind Speed: 0mph 1mph 0mph 0mph
Wind Gust: 4mph 5mph - -
WindCalm - - East
Pressure: 30.16 in 30.18 in 30.14 in -
Precipitation: 0 in      
Historical Graphs
 
 
Tabular Data for November 17, 2019
Time Temperature Dew Point Pressure Wind Wind Speed Wind Gust Humidity Rainfall Rate (Hourly) solar
00:00 33.9 °F 30.4 °F 30.16 in Calm     87% 0 in 0.00 W/m2
00:05 33.9 °F 30.4 °F 30.16 in Calm     87% 0 in 0.00 W/m2
00:10 33.9 °F 30.7 °F 30.16 in Calm     88% 0 in 0.00 W/m2
00:15 33.9 °F 30.7 °F 30.16 in Calm     88% 0 in 0.00 W/m2
00:20 33.9 °F 30.7 °F 30.16 in Calm     88% 0 in 0.00 W/m2
00:25 33.9 °F 31 °F 30.16 in Calm     89% 0 in 0.00 W/m2
00:30 34 °F 31.1 °F 30.16 in Calm     89% 0 in 0.00 W/m2
00:35 34 °F 31.1 °F 30.16 in Calm     89% 0 in 0.00 W/m2
00:40 34 °F 31.1 °F 30.16 in Calm     89% 0 in 0.00 W/m2
00:45 34 °F 31.1 °F 30.16 in Calm     89% 0 in 0.00 W/m2
00:50 34.1 °F 31.2 °F 30.16 in Calm     89% 0 in 0.00 W/m2
00:55 34.1 °F 31.2 °F 30.16 in Calm     89% 0 in 0.00 W/m2
01:00 34.2 °F 31.3 °F 30.16 in Calm     89% 0 in 0.00 W/m2
01:05 34.3 °F 31.4 °F 30.16 in Calm     89% 0 in 0.00 W/m2
01:10 34.3 °F 31.4 °F 30.16 in Calm     89% 0 in 0.00 W/m2
01:15 34.3 °F 31.4 °F 30.16 in Calm     89% 0 in 0.00 W/m2
01:20 34.4 °F 31.5 °F 30.16 in Calm     89% 0 in 0.00 W/m2
01:25 34.4 °F 31.5 °F 30.16 in Calm     89% 0 in 0.00 W/m2
01:30 34.3 °F 31.4 °F 30.16 in Calm     89% 0 in 0.00 W/m2
01:35 34.3 °F 31.1 °F 30.15 in Calm     88% 0 in 0.00 W/m2
01:40 34.3 °F 31.1 °F 30.15 in Calm     88% 0 in 0.00 W/m2
01:45 34.3 °F 31.1 °F 30.15 in Calm     88% 0 in 0.00 W/m2
01:50 34.3 °F 31.4 °F 30.15 in Calm     89% 0 in 0.00 W/m2
01:55 34.3 °F 31.1 °F 30.15 in Calm     88% 0 in 0.00 W/m2
02:00 34.3 °F 31.1 °F 30.15 in Calm     88% 0 in 0.00 W/m2
02:05 34.2 °F 31 °F 30.14 in Calm     88% 0 in 0.00 W/m2
02:10 34.2 °F 31 °F 30.15 in Calm     88% 0 in 0.00 W/m2
02:15 34.2 °F 31.3 °F 30.15 in Calm     89% 0 in 0.00 W/m2
02:20 34.2 °F 31.3 °F 30.15 in Calm     89% 0 in 0.00 W/m2
02:25 34.1 °F 31.2 °F 30.15 in Calm   1 mph 89% 0 in 0.00 W/m2
02:30 34.1 °F 31.2 °F 30.15 in Calm   1 mph 89% 0 in 0.00 W/m2
02:35 34 °F 31.1 °F 30.15 in Calm     89% 0 in 0.00 W/m2
02:40 34 °F 31.1 °F 30.15 in Calm     89% 0 in 0.00 W/m2
02:45 34.1 °F 31.2 °F 30.15 in Calm     89% 0 in 0.00 W/m2
02:50 34.1 °F 31.2 °F 30.15 in Calm     89% 0 in 0.00 W/m2
02:55 34.1 °F 31.2 °F 30.15 in Calm     89% 0 in 0.00 W/m2
03:00 34.1 °F 31.2 °F 30.15 in Calm     89% 0 in 0.00 W/m2
03:05 34.2 °F 31.3 °F 30.15 in Calm     89% 0 in 0.00 W/m2
03:10 34.3 °F 31.4 °F 30.15 in Calm     89% 0 in 0.00 W/m2
03:15 34.4 °F 31.5 °F 30.15 in Calm     89% 0 in 0.00 W/m2
03:20 34.4 °F 31.5 °F 30.15 in Calm     89% 0 in 0.00 W/m2
03:25 34.4 °F 31.5 °F 30.15 in Calm     89% 0 in 0.00 W/m2
03:30 34.5 °F 31.6 °F 30.15 in Calm   1 mph 89% 0 in 0.00 W/m2
03:35 34.5 °F 31.6 °F 30.15 in Calm     89% 0 in 0.00 W/m2
03:40 34.6 °F 31.7 °F 30.15 in Calm     89% 0 in 0.00 W/m2
03:45 34.6 °F 31.7 °F 30.15 in Calm     89% 0 in 0.00 W/m2
03:50 34.6 °F 31.7 °F 30.16 in Calm     89% 0 in 0.00 W/m2
03:55 34.7 °F 31.8 °F 30.16 in Calm     89% 0 in 0.00 W/m2
04:00 34.7 °F 31.8 °F 30.15 in Calm   1 mph 89% 0 in 0.00 W/m2
04:05 34.8 °F 31.6 °F 30.15 in Calm   1 mph 88% 0 in 0.00 W/m2
04:10 34.9 °F 31.7 °F 30.15 in Calm   1 mph 88% 0 in 0.00 W/m2
04:15 35 °F 31.8 °F 30.15 in Calm     88% 0 in 0.00 W/m2
04:20 35 °F 31.8 °F 30.15 in Calm     88% 0 in 0.00 W/m2
04:25 35.1 °F 31.9 °F 30.16 in Calm     88% 0 in 0.00 W/m2
04:30 35.1 °F 31.6 °F 30.15 in Calm     87% 0 in 0.00 W/m2
04:35 35.1 °F 31.6 °F 30.15 in Calm     87% 0 in 0.00 W/m2
04:40 35.1 °F 31.6 °F 30.15 in Calm     87% 0 in 0.00 W/m2
04:45 35.1 °F 31.6 °F 30.15 in Calm   1 mph 87% 0 in 0.00 W/m2
04:50 35 °F 31.5 °F 30.15 in Calm     87% 0 in 0.00 W/m2
04:55 35 °F 31.5 °F 30.15 in Calm   1 mph 87% 0 in 0.00 W/m2
05:00 35 °F 31.5 °F 30.15 in Calm   1 mph 87% 0 in 0.00 W/m2
05:05 35 °F 31.5 °F 30.16 in Calm     87% 0 in 0.00 W/m2
05:10 35 °F 31.5 °F 30.16 in Calm     87% 0 in 0.00 W/m2
05:15 34.9 °F 31.4 °F 30.16 in Calm     87% 0 in 0.00 W/m2
05:20 34.9 °F 31.4 °F 30.16 in Calm     87% 0 in 0.00 W/m2
05:25 34.8 °F 31.3 °F 30.16 in Calm     87% 0 in 0.00 W/m2
05:30 34.8 °F 31.3 °F 30.16 in Calm     87% 0 in 0.00 W/m2
05:35 34.7 °F 31.2 °F 30.16 in Calm     87% 0 in 0.00 W/m2
05:40 34.6 °F 31.1 °F 30.16 in Calm     87% 0 in 0.00 W/m2
05:45 34.5 °F 31 °F 30.16 in Calm     87% 0 in 0.00 W/m2
05:50 34.4 °F 30.9 °F 30.16 in Calm     87% 0 in 0.00 W/m2
05:55 34.3 °F 30.8 °F 30.16 in Calm     87% 0 in 0.00 W/m2
06:00 34.2 °F 30.7 °F 30.16 in Calm     87% 0 in 0.00 W/m2
06:05 34.1 °F 30.6 °F 30.17 in Calm     87% 0 in 0.00 W/m2
06:10 33.9 °F 30.4 °F 30.16 in Calm     87% 0 in 0.00 W/m2
06:15 33.9 °F 30.4 °F 30.17 in Calm     87% 0 in 0.00 W/m2
06:20 33.8 °F 30.3 °F 30.17 in Calm     87% 0 in 2.00 W/m2
06:25 33.7 °F 30.3 °F 30.17 in Calm     87% 0 in 6.00 W/m2
06:30 33.7 °F 30.5 °F 30.17 in Calm     88% 0 in 8.00 W/m2
06:35 33.6 °F 30.4 °F 30.18 in Calm   1 mph 88% 0 in 11.00 W/m2
06:40 33.6 °F 30.4 °F 30.18 in Calm     88% 0 in 16.00 W/m2
06:45 33.7 °F 30.8 °F 30.18 in Calm     89% 0 in 19.00 W/m2
06:50 33.8 °F 30.9 °F 30.18 in Calm     89% 0 in 21.00 W/m2
06:55 33.9 °F 31 °F 30.18 in Calm     89% 0 in 24.00 W/m2
07:00 34 °F 31.1 °F 30.18 in Calm   1 mph 89% 0 in 26.00 W/m2
07:05 34.2 °F 31.6 °F 30.18 in Calm     90% 0 in 26.00 W/m2
07:10 34.4 °F 31.8 °F 30.17 in Calm     90% 0 in 30.00 W/m2
07:15 34.6 °F 32 °F 30.17 in Calm     90% 0 in 66.00 W/m2
07:20 34.8 °F 32.2 °F 30.17 in Calm     90% 0 in 59.00 W/m2
07:25 35.1 °F 32.5 °F 30.17 in Calm     90% 0 in 81.00 W/m2
07:30 35.5 °F 32.9 °F 30.17 in Calm     90% 0 in 70.00 W/m2
07:35 35.9 °F 33.5 °F 30.17 in Calm   1 mph 91% 0 in 53.00 W/m2
07:40 36.5 °F 33.9 °F 30.17 in Calm   1 mph 90% 0 in 59.00 W/m2
07:45 37.1 °F 34.4 °F 30.17 in Calm   1 mph 90% 0 in 74.00 W/m2
07:50 37.8 °F 34.9 °F 30.17 in Calm   1 mph 89% 0 in 63.00 W/m2
07:55 38.3 °F 35.1 °F 30.16 in Calm     88% 0 in 90.00 W/m2
08:00 38.9 °F 35.1 °F 30.16 in Calm   1 mph 86% 0 in 198.00 W/m2
08:05 39.8 °F 35.7 °F 30.16 in Calm   1 mph 85% 0 in 209.00 W/m2
08:10 40.5 °F 36.1 °F 30.16 in Calm   2 mph 84% 0 in 322.00 W/m2
08:15 41.5 °F 36.4 °F 30.16 in East 1 mph 2 mph 82% 0 in 361.00 W/m2
08:20 42.4 °F 37 °F 30.16 in Calm   2 mph 81% 0 in 380.00 W/m2
08:25 43.4 °F 37.3 °F 30.16 in Calm   2 mph 79% 0 in 392.00 W/m2
08:30 44.4 °F 38 °F 30.16 in ENE 1 mph 5 mph 78% 0 in 418.00 W/m2
08:35 45.4 °F 38.6 °F 30.16 in Calm   1 mph 77% 0 in 443.00 W/m2
08:40 46.4 °F 38.6 °F 30.16 in Calm   4 mph 74% 0 in 466.00 W/m2
Albertville, AL Weather
Compliments of Weather Underground - 2 mb